createdAt,value
2023-04-16T00:00:09.297Z,9.00
2023-04-16T00:03:17.409Z,9.00
2023-04-16T00:06:22.506Z,9.10
2023-04-16T00:09:27.092Z,9.00
2023-04-16T00:12:31.528Z,9.00
2023-04-16T00:15:36.107Z,9.00
2023-04-16T00:18:40.798Z,9.00
2023-04-16T00:21:45.952Z,9.00
2023-04-16T00:24:50.748Z,9.00
2023-04-16T00:27:54.828Z,9.00
2023-04-16T00:31:01.045Z,9.00
2023-04-16T00:34:05.028Z,8.90
2023-04-16T00:37:09.648Z,9.00
2023-04-16T00:40:14.372Z,9.00
2023-04-16T00:43:21.395Z,8.90
2023-04-16T00:46:25.907Z,8.90
2023-04-16T00:49:31.279Z,8.90
2023-04-16T00:52:35.466Z,8.90
2023-04-16T00:55:40.685Z,8.90
2023-04-16T00:58:45.308Z,8.90
2023-04-16T01:01:50.524Z,8.90
2023-04-16T01:04:54.996Z,8.90
2023-04-16T01:08:00.628Z,8.90
2023-04-16T01:11:04.691Z,8.90
2023-04-16T01:14:09.602Z,9.00
2023-04-16T01:17:14.211Z,8.90
2023-04-16T01:20:18.397Z,8.90
2023-04-16T01:23:23.064Z,8.90
2023-04-16T01:26:27.319Z,8.90
2023-04-16T01:29:31.829Z,8.90
2023-04-16T01:32:37.471Z,8.80
2023-04-16T01:35:42.014Z,8.80
2023-04-16T01:38:46.283Z,8.80
2023-04-16T01:41:50.758Z,8.80
2023-04-16T01:44:55.249Z,8.90
2023-04-16T01:47:59.531Z,8.80
2023-04-16T01:51:04.937Z,8.80
2023-04-16T01:54:09.243Z,8.80
2023-04-16T01:57:13.481Z,8.80
2023-04-16T02:00:17.932Z,8.70
2023-04-16T02:03:25.534Z,8.80
2023-04-16T02:06:31.572Z,8.70
2023-04-16T02:09:36.813Z,8.70
2023-04-16T02:12:43.763Z,8.70
2023-04-16T02:15:48.748Z,8.70
2023-04-16T02:18:57.274Z,8.70
2023-04-16T02:22:02.698Z,8.70
2023-04-16T02:25:07.333Z,8.70
2023-04-16T02:28:13.190Z,8.70
2023-04-16T02:31:19.635Z,8.60
2023-04-16T02:34:25.684Z,8.60
2023-04-16T02:37:30.181Z,8.50
2023-04-16T02:40:34.404Z,8.60
2023-04-16T02:43:38.763Z,8.60
2023-04-16T02:46:43.247Z,8.50
2023-04-16T02:49:47.162Z,8.50
2023-04-16T02:52:51.795Z,8.50
2023-04-16T02:55:56.583Z,8.50
2023-04-16T02:59:01.035Z,8.50
2023-04-16T03:02:05.870Z,8.50
2023-04-16T03:05:10.465Z,8.50
2023-04-16T03:08:14.710Z,8.50
2023-04-16T03:11:19.940Z,8.40
2023-04-16T03:14:24.314Z,8.40
2023-04-16T03:17:28.684Z,8.40
2023-04-16T03:20:33.441Z,8.30
2023-04-16T03:23:38.236Z,8.20
2023-04-16T03:26:42.566Z,8.20
2023-04-16T03:29:47.786Z,8.10
2023-04-16T03:32:52.333Z,8.00
2023-04-16T03:35:57.420Z,8.00
2023-04-16T03:39:03.962Z,7.90
2023-04-16T03:42:08.394Z,7.80
2023-04-16T03:45:12.879Z,7.70
2023-04-16T03:48:17.467Z,7.70
2023-04-16T03:51:22.114Z,7.70
2023-04-16T03:54:26.816Z,7.60
2023-04-16T03:57:42.659Z,7.60
2023-04-16T04:00:52.817Z,7.60
2023-04-16T04:03:57.644Z,7.60
2023-04-16T04:07:02.024Z,7.60
2023-04-16T04:10:06.778Z,7.60
2023-04-16T04:13:16.122Z,7.60
2023-04-16T04:16:20.835Z,7.60
2023-04-16T04:19:25.274Z,7.60
2023-04-16T04:22:29.393Z,7.70
2023-04-16T04:25:33.926Z,7.70
2023-04-16T04:28:37.962Z,7.70
2023-04-16T04:31:42.594Z,7.70
2023-04-16T04:34:47.194Z,7.70
2023-04-16T04:37:51.775Z,7.70
2023-04-16T04:40:57.806Z,7.70
2023-04-16T04:44:04.589Z,7.70
2023-04-16T04:47:08.943Z,7.70
2023-04-16T04:50:13.578Z,7.70
2023-04-16T04:53:18.768Z,7.80
2023-04-16T04:56:23.099Z,7.80
2023-04-16T04:59:27.516Z,7.80
2023-04-16T05:02:32.268Z,7.90
2023-04-16T05:05:37.177Z,7.90
2023-04-16T05:08:41.662Z,7.90
2023-04-16T05:11:45.773Z,8.00
2023-04-16T05:14:49.909Z,8.00
2023-04-16T05:17:55.885Z,8.00
2023-04-16T05:21:00.334Z,8.10
2023-04-16T05:24:04.853Z,8.10
2023-04-16T05:27:09.132Z,8.10
2023-04-16T05:30:13.498Z,8.10
2023-04-16T05:33:18.088Z,8.20
2023-04-16T05:36:22.512Z,8.20
2023-04-16T05:39:27.060Z,8.30
2023-04-16T05:42:31.410Z,8.30
2023-04-16T05:45:40.827Z,8.40
2023-04-16T05:48:45.396Z,8.40
2023-04-16T05:51:50.851Z,8.50
2023-04-16T05:54:55.166Z,8.50
2023-04-16T05:57:59.809Z,8.60
2023-04-16T06:01:04.474Z,8.60
2023-04-16T06:04:08.780Z,8.60
2023-04-16T06:07:13.113Z,8.70
2023-04-16T06:10:17.298Z,8.70
2023-04-16T06:13:22.114Z,8.70
2023-04-16T06:16:26.560Z,8.70
2023-04-16T06:19:30.982Z,8.70
2023-04-16T06:22:35.248Z,8.70
2023-04-16T06:25:39.384Z,8.70
2023-04-16T06:28:43.637Z,8.70
2023-04-16T06:31:48.425Z,8.70
2023-04-16T06:34:53.010Z,8.60
2023-04-16T06:37:57.358Z,8.60
2023-04-16T06:41:01.335Z,8.60
2023-04-16T06:44:06.209Z,8.70
2023-04-16T06:47:10.795Z,8.60
2023-04-16T06:50:15.615Z,8.60
2023-04-16T06:53:20.089Z,8.60
2023-04-16T06:56:24.565Z,8.60
2023-04-16T06:59:28.483Z,8.60
2023-04-16T07:02:32.993Z,8.60
2023-04-16T07:05:37.397Z,8.60
2023-04-16T07:08:41.981Z,8.60
2023-04-16T07:11:46.552Z,8.60
2023-04-16T07:14:50.957Z,8.60
2023-04-16T07:17:55.639Z,8.70
2023-04-16T07:20:59.913Z,8.70
2023-04-16T07:24:04.695Z,8.70
2023-04-16T07:27:08.686Z,8.70
2023-04-16T07:30:12.826Z,8.70
2023-04-16T07:33:17.049Z,8.70
2023-04-16T07:36:21.471Z,8.70
2023-04-16T07:39:25.402Z,8.70
2023-04-16T07:42:29.377Z,8.80
2023-04-16T07:45:33.328Z,8.90
2023-04-16T07:48:37.422Z,8.90
2023-04-16T07:51:41.475Z,8.90
2023-04-16T07:54:45.888Z,9.00
2023-04-16T07:57:50.563Z,9.00
2023-04-16T08:00:55.075Z,9.10
2023-04-16T08:03:59.410Z,9.10
2023-04-16T08:07:03.926Z,9.30
2023-04-16T08:10:08.639Z,9.30
2023-04-16T08:13:12.868Z,9.40
2023-04-16T08:16:17.226Z,9.40
2023-04-16T08:19:21.590Z,9.50
2023-04-16T08:22:26.354Z,9.60
2023-04-16T08:25:30.563Z,9.70
2023-04-16T08:28:34.691Z,9.70
2023-04-16T08:31:38.943Z,9.80
2023-04-16T08:34:43.509Z,9.90
2023-04-16T08:37:48.097Z,10.00
2023-04-16T08:40:54.225Z,10.00
2023-04-16T08:44:00.007Z,10.00
2023-04-16T08:47:07.076Z,9.90
2023-04-16T08:50:12.056Z,10.00
2023-04-16T08:53:18.363Z,9.90
2023-04-16T08:56:26.520Z,10.10
2023-04-16T08:59:30.906Z,10.20
2023-04-16T09:02:36.081Z,10.30
2023-04-16T09:05:41.768Z,10.40
2023-04-16T09:08:49.008Z,10.50
2023-04-16T09:11:53.904Z,10.50
2023-04-16T09:15:01.124Z,10.70
2023-04-16T09:18:05.743Z,10.90
2023-04-16T09:21:10.074Z,11.00
2023-04-16T09:24:14.332Z,11.00
2023-04-16T09:27:18.909Z,11.00
2023-04-16T09:30:24.375Z,11.00
2023-04-16T09:33:28.719Z,11.10
2023-04-16T09:36:32.977Z,11.10
2023-04-16T09:39:37.288Z,11.10
2023-04-16T09:42:41.797Z,11.10
2023-04-16T09:45:51.064Z,11.30
2023-04-16T09:48:55.746Z,11.30
2023-04-16T09:52:00.305Z,11.40
2023-04-16T09:55:04.376Z,11.40
2023-04-16T09:58:08.712Z,11.50
2023-04-16T10:01:13.186Z,11.50
2023-04-16T10:04:17.854Z,11.60
2023-04-16T10:07:22.288Z,11.70
2023-04-16T10:10:26.874Z,11.90
2023-04-16T10:13:32.047Z,11.90
2023-04-16T10:16:36.765Z,11.90
2023-04-16T10:19:41.707Z,12.10
2023-04-16T10:22:46.230Z,12.10
2023-04-16T10:25:50.564Z,12.10
2023-04-16T10:28:54.826Z,12.20
2023-04-16T10:31:59.636Z,12.20
2023-04-16T10:35:05.060Z,12.40
2023-04-16T10:38:25.548Z,12.30
2023-04-16T10:41:32.378Z,12.50
2023-04-16T10:44:37.183Z,12.60
2023-04-16T10:47:43.073Z,12.50
2023-04-16T10:50:57.399Z,12.60
2023-04-16T10:54:19.403Z,12.60
2023-04-16T10:57:28.900Z,12.80
2023-04-16T11:00:48.548Z,12.80
2023-04-16T11:03:53.246Z,12.80
2023-04-16T11:07:03.634Z,13.00
2023-04-16T11:10:12.720Z,13.10
2023-04-16T11:13:18.316Z,13.10
2023-04-16T11:16:24.459Z,13.20
2023-04-16T11:19:28.745Z,13.30
2023-04-16T11:22:35.268Z,13.30
2023-04-16T11:25:39.307Z,13.40
2023-04-16T11:28:43.456Z,13.40
2023-04-16T11:31:51.745Z,13.40
2023-04-16T11:34:56.099Z,13.50
2023-04-16T11:38:00.539Z,13.40
2023-04-16T11:41:04.668Z,13.50
2023-04-16T11:44:18.348Z,13.80
2023-04-16T11:47:23.395Z,14.10
2023-04-16T11:50:28.634Z,14.60
2023-04-16T11:53:32.874Z,14.70
2023-04-16T11:56:37.373Z,14.70
2023-04-16T12:00:01.977Z,15.00
2023-04-16T12:03:17.148Z,15.40
2023-04-16T12:06:23.248Z,15.80
2023-04-16T12:09:28.595Z,15.30
2023-04-16T12:12:32.724Z,15.60
2023-04-16T12:15:46.994Z,15.90
2023-04-16T12:19:04.093Z,16.40
2023-04-16T12:22:08.116Z,16.50
2023-04-16T12:25:14.029Z,16.70
2023-04-16T12:28:27.988Z,17.10
2023-04-16T12:31:41.873Z,17.50
2023-04-16T12:34:52.421Z,17.50
2023-04-16T12:37:57.328Z,17.50
2023-04-16T12:41:02.372Z,17.80
2023-04-16T12:44:16.544Z,17.60
2023-04-16T12:47:21.328Z,17.70
2023-04-16T12:50:26.018Z,18.10
2023-04-16T12:53:30.404Z,17.90
2023-04-16T12:56:35.859Z,18.00
2023-04-16T12:59:39.990Z,18.30
2023-04-16T13:02:44.976Z,18.10
2023-04-16T13:05:49.273Z,18.00
2023-04-16T13:08:54.096Z,17.90
2023-04-16T13:11:58.320Z,18.00
2023-04-16T13:15:02.856Z,17.90
2023-04-16T13:18:07.333Z,17.80
2023-04-16T13:21:12.336Z,17.80
2023-04-16T13:24:16.883Z,17.70
2023-04-16T13:27:21.637Z,17.60
2023-04-16T13:30:25.781Z,17.70
2023-04-16T13:33:29.999Z,17.50
2023-04-16T13:36:34.382Z,17.40
2023-04-16T13:39:38.926Z,17.70
2023-04-16T13:42:43.222Z,17.40
2023-04-16T13:45:47.731Z,17.70
2023-04-16T13:48:51.897Z,17.40
2023-04-16T13:51:58.619Z,17.40
2023-04-16T13:55:04.366Z,17.50
2023-04-16T13:58:09.454Z,17.60
2023-04-16T14:01:19.714Z,17.40
2023-04-16T14:04:24.404Z,17.20
2023-04-16T14:07:30.403Z,17.00
2023-04-16T14:10:34.969Z,16.70
2023-04-16T14:13:39.524Z,15.80
2023-04-16T14:16:43.764Z,15.30
2023-04-16T14:19:48.297Z,15.00
2023-04-16T14:22:52.651Z,14.80
2023-04-16T14:25:56.804Z,15.00
2023-04-16T14:29:01.278Z,15.50
2023-04-16T14:32:06.828Z,15.20
2023-04-16T14:35:11.587Z,15.00
2023-04-16T14:38:16.274Z,14.90
2023-04-16T14:41:20.745Z,14.80
2023-04-16T14:44:25.530Z,14.90
2023-04-16T14:47:29.478Z,14.30
2023-04-16T14:50:43.557Z,14.90
2023-04-16T14:53:48.078Z,15.30
2023-04-16T14:56:52.342Z,14.70
2023-04-16T14:59:57.009Z,15.00
2023-04-16T15:03:01.904Z,14.60
2023-04-16T15:06:08.729Z,14.90
2023-04-16T15:09:13.357Z,14.80
2023-04-16T15:12:19.153Z,14.60
2023-04-16T15:15:23.450Z,14.60
2023-04-16T15:18:29.118Z,14.90
2023-04-16T15:21:33.453Z,14.80
2023-04-16T15:24:38.007Z,14.70
2023-04-16T15:27:42.554Z,14.50
2023-04-16T15:30:46.678Z,14.60
2023-04-16T15:33:52.245Z,14.60
2023-04-16T15:36:56.381Z,14.20
2023-04-16T15:40:00.505Z,14.00
2023-04-16T15:43:06.040Z,14.00
2023-04-16T15:46:10.835Z,13.80
2023-04-16T15:49:15.602Z,13.60
2023-04-16T15:52:20.371Z,13.50
2023-04-16T15:55:26.182Z,13.50
2023-04-16T15:58:30.484Z,13.40
2023-04-16T16:01:34.747Z,13.20
2023-04-16T16:04:46.005Z,13.00
2023-04-16T16:07:50.530Z,13.10
2023-04-16T16:10:55.022Z,13.10
2023-04-16T16:14:02.790Z,13.10
2023-04-16T16:17:07.032Z,13.10
2023-04-16T16:20:12.781Z,13.00
2023-04-16T16:23:17.077Z,12.70
2023-04-16T16:26:22.929Z,12.50
2023-04-16T16:29:27.419Z,12.40
2023-04-16T16:32:31.359Z,12.50
2023-04-16T16:35:36.178Z,12.10
2023-04-16T16:38:41.103Z,11.60
2023-04-16T16:41:45.641Z,11.30
2023-04-16T16:44:49.938Z,11.20
2023-04-16T16:47:54.782Z,11.20
2023-04-16T16:50:59.122Z,10.90
2023-04-16T16:54:03.543Z,10.90
2023-04-16T16:57:08.059Z,10.80
2023-04-16T17:00:16.177Z,10.80
2023-04-16T17:03:20.862Z,10.80
2023-04-16T17:06:26.668Z,10.90
2023-04-16T17:09:31.140Z,10.90
2023-04-16T17:12:35.478Z,10.90
2023-04-16T17:15:39.323Z,10.80
2023-04-16T17:18:43.796Z,10.60
2023-04-16T17:21:48.213Z,10.60
2023-04-16T17:24:53.092Z,10.70
2023-04-16T17:27:57.586Z,10.70
2023-04-16T17:31:02.592Z,10.60
2023-04-16T17:34:06.795Z,10.60
2023-04-16T17:37:11.369Z,10.50
2023-04-16T17:40:18.106Z,10.50
2023-04-16T17:43:23.984Z,10.50
2023-04-16T17:46:28.379Z,10.40
2023-04-16T17:49:32.709Z,10.40
2023-04-16T17:52:37.788Z,10.40
2023-04-16T17:55:49.945Z,10.50
2023-04-16T17:58:54.023Z,10.60
2023-04-16T18:01:58.498Z,10.70
2023-04-16T18:05:03.824Z,10.80
2023-04-16T18:08:08.364Z,10.80
2023-04-16T18:11:13.059Z,10.80
2023-04-16T18:14:19.952Z,10.80
2023-04-16T18:17:24.337Z,10.80
2023-04-16T18:20:28.898Z,10.80
2023-04-16T18:23:33.705Z,10.70
2023-04-16T18:26:40.047Z,10.70
2023-04-16T18:29:45.683Z,10.60
2023-04-16T18:33:11.525Z,10.60
2023-04-16T18:36:14.653Z,10.50
2023-04-16T18:39:19.331Z,10.50
2023-04-16T18:42:23.612Z,10.40
2023-04-16T18:45:28.369Z,10.40
2023-04-16T18:48:32.574Z,10.40
2023-04-16T18:51:37.428Z,10.30
2023-04-16T18:54:42.104Z,10.30
2023-04-16T18:57:46.550Z,10.30
2023-04-16T19:00:55.182Z,10.20
2023-04-16T19:03:59.327Z,10.20
2023-04-16T19:07:03.952Z,10.10
2023-04-16T19:10:08.306Z,10.10
2023-04-16T19:13:12.783Z,10.10
2023-04-16T19:16:17.290Z,10.00
2023-04-16T19:19:21.549Z,10.00
2023-04-16T19:22:26.224Z,9.90
2023-04-16T19:25:34.114Z,9.90
2023-04-16T19:28:38.797Z,9.90
2023-04-16T19:31:43.513Z,9.80
2023-04-16T19:34:48.312Z,9.80
2023-04-16T19:37:52.740Z,9.70
2023-04-16T19:40:57.508Z,9.70
2023-04-16T19:44:01.817Z,9.60
2023-04-16T19:47:06.541Z,9.60
2023-04-16T19:50:11.125Z,9.50
2023-04-16T19:53:17.176Z,9.50
2023-04-16T19:56:21.820Z,9.50
2023-04-16T19:59:28.551Z,9.40
2023-04-16T20:02:32.879Z,9.40
2023-04-16T20:05:37.249Z,9.30
2023-04-16T20:08:42.224Z,9.20
2023-04-16T20:11:47.075Z,9.10
2023-04-16T20:14:51.431Z,9.00
2023-04-16T20:17:56.358Z,9.00
2023-04-16T20:21:03.354Z,9.00
2023-04-16T20:24:10.469Z,8.90
2023-04-16T20:27:15.143Z,8.80
2023-04-16T20:30:22.447Z,8.70
2023-04-16T20:33:27.037Z,8.70
2023-04-16T20:36:31.816Z,8.60
2023-04-16T20:39:36.155Z,8.50
2023-04-16T20:42:40.821Z,8.40
2023-04-16T20:45:46.168Z,8.30
2023-04-16T20:48:51.232Z,8.00
2023-04-16T20:51:55.390Z,7.70
2023-04-16T20:54:59.876Z,7.60
2023-04-16T20:58:03.920Z,7.40
2023-04-16T21:01:08.473Z,7.20
2023-04-16T21:04:13.267Z,7.10
2023-04-16T21:07:17.894Z,7.00
2023-04-16T21:10:22.572Z,6.90
2023-04-16T21:13:26.584Z,6.80
2023-04-16T21:16:31.370Z,6.80
2023-04-16T21:19:35.726Z,6.80
2023-04-16T21:22:39.781Z,6.70
2023-04-16T21:25:43.667Z,6.60
2023-04-16T21:28:48.298Z,6.60
2023-04-16T21:31:52.477Z,6.50
2023-04-16T21:34:57.221Z,6.50
2023-04-16T21:38:01.729Z,6.40
2023-04-16T21:41:06.415Z,6.40
2023-04-16T21:44:10.607Z,6.30
2023-04-16T21:47:15.015Z,6.30
2023-04-16T21:50:19.328Z,6.20
2023-04-16T21:53:23.809Z,6.20
2023-04-16T21:56:27.970Z,6.10
2023-04-16T21:59:32.521Z,6.10
2023-04-16T22:02:37.045Z,6.10
2023-04-16T22:05:41.577Z,6.10
2023-04-16T22:08:46.298Z,6.00
2023-04-16T22:11:52.385Z,6.00
2023-04-16T22:15:02.470Z,5.90
2023-04-16T22:18:09.581Z,5.90
2023-04-16T22:21:14.153Z,5.80
2023-04-16T22:24:18.437Z,5.80
2023-04-16T22:27:22.928Z,5.70
2023-04-16T22:30:27.435Z,5.70
2023-04-16T22:33:31.568Z,5.70
2023-04-16T22:36:35.737Z,5.70
2023-04-16T22:39:39.914Z,5.60
2023-04-16T22:42:44.154Z,5.60
2023-04-16T22:45:48.638Z,5.60
2023-04-16T22:48:53.442Z,5.50
2023-04-16T22:51:57.791Z,5.50
2023-04-16T22:55:01.815Z,5.40
2023-04-16T22:58:06.294Z,5.20
2023-04-16T23:01:10.482Z,5.20
2023-04-16T23:04:16.455Z,5.10
2023-04-16T23:07:21.018Z,5.00
2023-04-16T23:10:25.238Z,5.00
2023-04-16T23:13:29.760Z,4.90
2023-04-16T23:16:33.833Z,4.90
2023-04-16T23:19:38.397Z,4.90
2023-04-16T23:22:42.557Z,4.80
2023-04-16T23:25:47.296Z,4.80
2023-04-16T23:28:51.604Z,4.70
2023-04-16T23:31:55.814Z,4.70
2023-04-16T23:35:00.662Z,4.60
2023-04-16T23:38:05.433Z,4.50
2023-04-16T23:41:09.800Z,4.50
2023-04-16T23:44:14.500Z,4.40
2023-04-16T23:47:18.487Z,4.40
2023-04-16T23:50:23.219Z,4.30
2023-04-16T23:53:27.314Z,4.20
2023-04-16T23:56:32.059Z,4.10
2023-04-16T23:59:36.451Z,4.10
